• Join FlightAware (Why Join?)
  • Login
  • US Flag 
03:11PM EDT


 

Airport Tracker/Info


-or-


 

Live Flight TrackerFlight Track Log ✈ SKW6336 ✈ 05-May-2013 ✈ KSFO - KRNO

Flight Track Log - Related Links

Times and Time Zones

All times are in EDT time to prevent confusion due to time zone crossing. See the SKW6336 flight status page for this flight to view local times or setup timezone preferences in your user account.

Time Position Orientation Groundspeed Altitude Reporting Facility
EDT Latitude Longitude Course Direction KTS MPH feet Rate Location/Type
11:48AM 37.6000 -122.3333 90° East 159 183 1,400  Level Northern Cal TRACON
11:49AM 37.6000 -122.2667 90° East 222 255 4,000 2,400 Climbing Northern Cal TRACON
11:49AM 37.5989 -122.2167 92° East 239 275 5,600 2,160 Climbing Oakland Center
11:50AM 37.6661 -122.1669 30° Northeast 282 325 7,800 2,160 Climbing Oakland Center
11:51AM 37.7394 -122.1072 33° Northeast 307 353 10,100 2,340 Climbing Oakland Center
11:52AM 37.8169 -122.0472 31° Northeast 324 373 12,600 2,340 Climbing Oakland Center
11:53AM 37.8967 -121.9853 32° Northeast 338 389 14,900 2,040 Climbing Oakland Center
11:54AM 37.9986 -121.9036 32° Northeast 361 415 16,800 1,860 Climbing Oakland Center
11:55AM 38.0878 -121.8339 32° Northeast 374 430 18,800 1,620 Climbing Oakland Center
11:56AM 38.1800 -121.7608 32° Northeast 386 444 20,200 1,380 Climbing Oakland Center
11:57AM 38.2753 -121.6856 32° Northeast 399 459 21,700 1,320 Climbing Oakland Center
11:58AM 38.3711 -121.6094 32° Northeast 405 466 22,900 600 Climbing Oakland Center
11:59AM 38.4783 -121.5069 37° Northeast 429 494 23,000  Climbing Oakland Center
12:00PM 38.5558 -121.4075 45° Northeast 449 517 23,000  Level Oakland Center
12:02PM 38.6433 -121.2969 45° Northeast 446 513 23,000  Level Oakland Center
12:03PM 38.7314 -121.1864 44° Northeast 445 512 23,000  Level Oakland Center
12:04PM 38.8108 -121.0817 46° Northeast 419 482 23,000 -180 Level Oakland Center
12:05PM 38.8919 -120.9769 45° Northeast 413 475 22,700 -720 Descending Oakland Center
12:06PM 38.9869 -120.8442 47° Northeast 420 483 21,600 -1,260 Descending Oakland Center
12:07PM 39.0683 -120.7444 44° Northeast 405 466 20,200 -1,920 Descending Oakland Center
12:08PM 39.1428 -120.6469 45° Northeast 384 442 17,800 -1,920 Descending Oakland Center
12:09PM 39.2147 -120.5536 45° Northeast 369 425 16,300 -900 Descending Oakland Center
12:10PM 39.2847 -120.4603 46° Northeast 361 415 16,000 -180 Descending Oakland Center
12:11PM 39.3558 -120.3681 45° Northeast 363 418 16,000  Level Oakland Center
12:12PM 39.4281 -120.2719 46° Northeast 370 426 16,000 -720 Level Oakland Center
12:13PM 39.5044 -120.1786 43° Northeast 377 434 14,600 -2,100 Descending Oakland Center
12:14PM 39.5822 -120.0781 45° Northeast 368 423 11,800 -1,920 Descending Oakland Center
12:15PM 39.6461 -119.9983 44° Northeast 320 368 10,700 -900 Descending Oakland Center
12:16PM 39.7028 -119.9328 42° Northeast 290 334 10,000 -660 Descending Oakland Center
12:17PM 39.7258 -119.8503 70° East 259 298 9,400 -540 Descending Oakland Center
12:18PM 39.7197 -119.7719 96° East 246 283 9,000 -720 Descending Oakland Center
12:19PM 39.6647 -119.7689 178° South 215 247 8,000 -840 Descending Oakland Center
12:20PM 39.6103 -119.7686 180° South 203 234 7,400 -1,200 Descending Oakland Center
12:21PM 39.5667 -119.7667 178° South 151 174 5,500 -1,680 Descending Northern Cal TRACON